Amsterdam, Ohio
Current Conditions -  °F | °C
As of 12:12 PM on Thursday 30 Oct 2014 (Local Time) from KHLG Reporting Station
Broken Clouds Broken Clouds  
Wind Chill: 46°   Ceiling: 2100
Heat Index: 49°   Visibility: 10mi
Dew Point: 38°   Wind: 7mph
Humidity: 66%   Direction: 240°WSW
Pressure: 30.11"   Gusts: NA
Location:  40.47°N, 80.92°W
Report Text: KHLG 301612Z 24006KT 10SM BKN021 BKN027 09/03 A3011 RMK AO2 T00940033
Loading
Personal Weather Stations






























Interactive Weather Map New forecast layout! Learn more

10-Day Weather Forecast

Advertisements
Track Severe Weather on mobile